sensor_id;sensor_type;location;lat;lon;timestamp;P1;durP1;ratioP1;P2;durP2;ratioP2
46897;SDS011;32646;50.958;6.258;2022-12-15T00:00:33;0.40;;;0.40;;
46897;SDS011;32646;50.958;6.258;2022-12-15T00:03:03;0.33;;;0.33;;
46897;SDS011;32646;50.958;6.258;2022-12-15T00:08:04;0.40;;;0.40;;
46897;SDS011;32646;50.958;6.258;2022-12-15T00:10:34;0.40;;;0.40;;
46897;SDS011;32646;50.958;6.258;2022-12-15T00:13:01;0.40;;;0.40;;
46897;SDS011;32646;50.958;6.258;2022-12-15T00:15:28;0.30;;;0.30;;
46897;SDS011;32646;50.958;6.258;2022-12-15T00:17:55;0.40;;;0.40;;
46897;SDS011;32646;50.958;6.258;2022-12-15T00:20:22;0.30;;;0.30;;
46897;SDS011;32646;50.958;6.258;2022-12-15T00:22:48;0.40;;;0.40;;
46897;SDS011;32646;50.958;6.258;2022-12-15T00:25:14;0.50;;;0.50;;
46897;SDS011;32646;50.958;6.258;2022-12-15T00:27:41;0.40;;;0.40;;
46897;SDS011;32646;50.958;6.258;2022-12-15T00:30:08;0.30;;;0.30;;
46897;SDS011;32646;50.958;6.258;2022-12-15T00:32:35;0.37;;;0.37;;
46897;SDS011;32646;50.958;6.258;2022-12-15T00:35:02;0.40;;;0.40;;
46897;SDS011;32646;50.958;6.258;2022-12-15T00:37:28;0.30;;;0.30;;
46897;SDS011;32646;50.958;6.258;2022-12-15T00:39:55;0.30;;;0.30;;
46897;SDS011;32646;50.958;6.258;2022-12-15T00:42:21;0.40;;;0.40;;
46897;SDS011;32646;50.958;6.258;2022-12-15T00:44:48;0.40;;;0.40;;
46897;SDS011;32646;50.958;6.258;2022-12-15T00:47:14;0.30;;;0.30;;
46897;SDS011;32646;50.958;6.258;2022-12-15T00:49:41;0.40;;;0.40;;
46897;SDS011;32646;50.958;6.258;2022-12-15T00:52:08;0.30;;;0.30;;
46897;SDS011;32646;50.958;6.258;2022-12-15T00:54:34;0.40;;;0.40;;
46897;SDS011;32646;50.958;6.258;2022-12-15T00:57:01;0.30;;;0.30;;
46897;SDS011;32646;50.958;6.258;2022-12-15T00:59:27;0.30;;;0.30;;
46897;SDS011;32646;50.958;6.258;2022-12-15T01:01:54;0.40;;;0.40;;
46897;SDS011;32646;50.958;6.258;2022-12-15T01:04:21;0.30;;;0.30;;
46897;SDS011;32646;50.958;6.258;2022-12-15T01:06:48;0.40;;;0.40;;
46897;SDS011;32646;50.958;6.258;2022-12-15T01:09:14;0.50;;;0.50;;
46897;SDS011;32646;50.958;6.258;2022-12-15T01:11:41;0.40;;;0.40;;
46897;SDS011;32646;50.958;6.258;2022-12-15T01:14:08;0.30;;;0.30;;
46897;SDS011;32646;50.958;6.258;2022-12-15T01:16:35;0.40;;;0.40;;
46897;SDS011;32646;50.958;6.258;2022-12-15T01:19:02;0.40;;;0.40;;
46897;SDS011;32646;50.958;6.258;2022-12-15T01:21:30;0.30;;;0.30;;
46897;SDS011;32646;50.958;6.258;2022-12-15T01:23:57;0.40;;;0.40;;
46897;SDS011;32646;50.958;6.258;2022-12-15T01:26:23;0.40;;;0.40;;
46897;SDS011;32646;50.958;6.258;2022-12-15T01:28:50;0.30;;;0.30;;
46897;SDS011;32646;50.958;6.258;2022-12-15T01:31:16;0.30;;;0.30;;
46897;SDS011;32646;50.958;6.258;2022-12-15T01:33:43;0.40;;;0.40;;
46897;SDS011;32646;50.958;6.258;2022-12-15T01:36:10;0.40;;;0.40;;
46897;SDS011;32646;50.958;6.258;2022-12-15T01:38:36;0.30;;;0.30;;
46897;SDS011;32646;50.958;6.258;2022-12-15T01:41:08;0.40;;;0.40;;
46897;SDS011;32646;50.958;6.258;2022-12-15T01:43:41;0.40;;;0.40;;
46897;SDS011;32646;50.958;6.258;2022-12-15T01:46:11;0.30;;;0.30;;
46897;SDS011;32646;50.958;6.258;2022-12-15T01:48:54;0.40;;;0.40;;
46897;SDS011;32646;50.958;6.258;2022-12-15T01:56:28;0.40;;;0.40;;
46897;SDS011;32646;50.958;6.258;2022-12-15T01:59:03;0.40;;;0.40;;
46897;SDS011;32646;50.958;6.258;2022-12-15T02:01:33;0.40;;;0.40;;
46897;SDS011;32646;50.958;6.258;2022-12-15T02:04:00;0.40;;;0.40;;
46897;SDS011;32646;50.958;6.258;2022-12-15T02:06:27;0.40;;;0.40;;
46897;SDS011;32646;50.958;6.258;2022-12-15T02:08:55;0.40;;;0.40;;
46897;SDS011;32646;50.958;6.258;2022-12-15T02:17:19;0.37;;;0.37;;
46897;SDS011;32646;50.958;6.258;2022-12-15T02:20:01;0.30;;;0.30;;
46897;SDS011;32646;50.958;6.258;2022-12-15T02:31:21;0.30;;;0.30;;
46897;SDS011;32646;50.958;6.258;2022-12-15T02:33:56;0.40;;;0.40;;
46897;SDS011;32646;50.958;6.258;2022-12-15T02:36:41;0.30;;;0.30;;
46897;SDS011;32646;50.958;6.258;2022-12-15T02:39:12;0.30;;;0.30;;
46897;SDS011;32646;50.958;6.258;2022-12-15T02:41:40;0.37;;;0.37;;
46897;SDS011;32646;50.958;6.258;2022-12-15T02:49:46;0.30;;;0.30;;
46897;SDS011;32646;50.958;6.258;2022-12-15T02:52:33;0.30;;;0.30;;
46897;SDS011;32646;50.958;6.258;2022-12-15T02:58:24;0.40;;;0.40;;
46897;SDS011;32646;50.958;6.258;2022-12-15T03:00:58;0.30;;;0.30;;
46897;SDS011;32646;50.958;6.258;2022-12-15T03:03:30;0.30;;;0.30;;
46897;SDS011;32646;50.958;6.258;2022-12-15T03:05:59;0.30;;;0.30;;
46897;SDS011;32646;50.958;6.258;2022-12-15T03:08:25;0.30;;;0.30;;
46897;SDS011;32646;50.958;6.258;2022-12-15T03:10:53;0.30;;;0.30;;
46897;SDS011;32646;50.958;6.258;2022-12-15T03:13:21;0.30;;;0.30;;
46897;SDS011;32646;50.958;6.258;2022-12-15T03:15:48;0.30;;;0.30;;
46897;SDS011;32646;50.958;6.258;2022-12-15T03:18:15;0.30;;;0.30;;
46897;SDS011;32646;50.958;6.258;2022-12-15T03:20:42;0.40;;;0.40;;
46897;SDS011;32646;50.958;6.258;2022-12-15T03:23:08;0.40;;;0.40;;
46897;SDS011;32646;50.958;6.258;2022-12-15T03:25:35;0.40;;;0.40;;
46897;SDS011;32646;50.958;6.258;2022-12-15T03:28:01;0.40;;;0.40;;
46897;SDS011;32646;50.958;6.258;2022-12-15T03:30:28;0.33;;;0.33;;
46897;SDS011;32646;50.958;6.258;2022-12-15T03:32:55;0.43;;;0.43;;
46897;SDS011;32646;50.958;6.258;2022-12-15T03:35:21;0.30;;;0.30;;
46897;SDS011;32646;50.958;6.258;2022-12-15T03:37:48;0.30;;;0.30;;
46897;SDS011;32646;50.958;6.258;2022-12-15T03:40:14;0.40;;;0.40;;
46897;SDS011;32646;50.958;6.258;2022-12-15T03:42:42;0.30;;;0.30;;
46897;SDS011;32646;50.958;6.258;2022-12-15T03:45:09;0.40;;;0.40;;
46897;SDS011;32646;50.958;6.258;2022-12-15T03:47:39;0.40;;;0.40;;
46897;SDS011;32646;50.958;6.258;2022-12-15T03:50:06;0.40;;;0.40;;
46897;SDS011;32646;50.958;6.258;2022-12-15T03:52:34;0.30;;;0.30;;
46897;SDS011;32646;50.958;6.258;2022-12-15T03:55:01;0.30;;;0.30;;
46897;SDS011;32646;50.958;6.258;2022-12-15T03:57:28;0.30;;;0.30;;
46897;SDS011;32646;50.958;6.258;2022-12-15T03:59:55;0.30;;;0.30;;
46897;SDS011;32646;50.958;6.258;2022-12-15T04:02:22;0.40;;;0.40;;
46897;SDS011;32646;50.958;6.258;2022-12-15T04:04:49;0.33;;;0.33;;
46897;SDS011;32646;50.958;6.258;2022-12-15T04:07:15;0.40;;;0.40;;
46897;SDS011;32646;50.958;6.258;2022-12-15T04:09:42;0.30;;;0.30;;
46897;SDS011;32646;50.958;6.258;2022-12-15T04:12:11;0.30;;;0.30;;
46897;SDS011;32646;50.958;6.258;2022-12-15T04:14:38;0.30;;;0.30;;
46897;SDS011;32646;50.958;6.258;2022-12-15T04:17:04;0.50;;;0.50;;
46897;SDS011;32646;50.958;6.258;2022-12-15T04:19:31;0.40;;;0.40;;
46897;SDS011;32646;50.958;6.258;2022-12-15T04:21:57;0.40;;;0.40;;
46897;SDS011;32646;50.958;6.258;2022-12-15T04:24:24;0.40;;;0.40;;
46897;SDS011;32646;50.958;6.258;2022-12-15T04:26:50;0.40;;;0.40;;
46897;SDS011;32646;50.958;6.258;2022-12-15T04:29:17;0.43;;;0.43;;
46897;SDS011;32646;50.958;6.258;2022-12-15T04:31:43;0.40;;;0.40;;
46897;SDS011;32646;50.958;6.258;2022-12-15T04:34:11;0.40;;;0.40;;
46897;SDS011;32646;50.958;6.258;2022-12-15T04:36:41;0.30;;;0.30;;
46897;SDS011;32646;50.958;6.258;2022-12-15T04:39:10;0.30;;;0.30;;
46897;SDS011;32646;50.958;6.258;2022-12-15T04:41:37;0.30;;;0.30;;
46897;SDS011;32646;50.958;6.258;2022-12-15T04:44:03;0.30;;;0.30;;
46897;SDS011;32646;50.958;6.258;2022-12-15T04:46:31;0.40;;;0.40;;
46897;SDS011;32646;50.958;6.258;2022-12-15T04:48:57;0.40;;;0.40;;
46897;SDS011;32646;50.958;6.258;2022-12-15T04:51:24;0.30;;;0.30;;
46897;SDS011;32646;50.958;6.258;2022-12-15T04:53:50;0.30;;;0.30;;
46897;SDS011;32646;50.958;6.258;2022-12-15T04:56:17;0.30;;;0.30;;
46897;SDS011;32646;50.958;6.258;2022-12-15T04:58:44;0.40;;;0.40;;
46897;SDS011;32646;50.958;6.258;2022-12-15T05:01:11;0.30;;;0.30;;
46897;SDS011;32646;50.958;6.258;2022-12-15T05:03:38;0.40;;;0.40;;
46897;SDS011;32646;50.958;6.258;2022-12-15T05:06:04;0.37;;;0.37;;
46897;SDS011;32646;50.958;6.258;2022-12-15T05:08:31;0.40;;;0.40;;
46897;SDS011;32646;50.958;6.258;2022-12-15T05:10:58;0.40;;;0.40;;
46897;SDS011;32646;50.958;6.258;2022-12-15T05:13:25;0.40;;;0.40;;
46897;SDS011;32646;50.958;6.258;2022-12-15T05:15:51;0.30;;;0.30;;
46897;SDS011;32646;50.958;6.258;2022-12-15T05:18:19;0.30;;;0.30;;
46897;SDS011;32646;50.958;6.258;2022-12-15T05:20:45;0.40;;;0.40;;
46897;SDS011;32646;50.958;6.258;2022-12-15T05:23:15;0.40;;;0.40;;
46897;SDS011;32646;50.958;6.258;2022-12-15T05:25:42;0.30;;;0.30;;
46897;SDS011;32646;50.958;6.258;2022-12-15T05:28:08;0.30;;;0.30;;
46897;SDS011;32646;50.958;6.258;2022-12-15T05:30:35;0.33;;;0.33;;
46897;SDS011;32646;50.958;6.258;2022-12-15T05:33:02;0.40;;;0.40;;
46897;SDS011;32646;50.958;6.258;2022-12-15T05:35:29;0.30;;;0.30;;
46897;SDS011;32646;50.958;6.258;2022-12-15T05:37:56;0.40;;;0.40;;
46897;SDS011;32646;50.958;6.258;2022-12-15T05:40:22;0.37;;;0.37;;
46897;SDS011;32646;50.958;6.258;2022-12-15T05:42:49;0.40;;;0.40;;
46897;SDS011;32646;50.958;6.258;2022-12-15T05:45:15;0.30;;;0.30;;
46897;SDS011;32646;50.958;6.258;2022-12-15T05:47:42;0.40;;;0.40;;
46897;SDS011;32646;50.958;6.258;2022-12-15T05:50:09;0.40;;;0.40;;
46897;SDS011;32646;50.958;6.258;2022-12-15T05:52:35;0.40;;;0.40;;
46897;SDS011;32646;50.958;6.258;2022-12-15T05:55:02;0.40;;;0.40;;
46897;SDS011;32646;50.958;6.258;2022-12-15T05:57:30;0.40;;;0.40;;
46897;SDS011;32646;50.958;6.258;2022-12-15T05:59:57;0.40;;;0.40;;
46897;SDS011;32646;50.958;6.258;2022-12-15T06:02:23;0.40;;;0.40;;
46897;SDS011;32646;50.958;6.258;2022-12-15T06:04:50;0.33;;;0.33;;
46897;SDS011;32646;50.958;6.258;2022-12-15T06:07:17;0.40;;;0.40;;
46897;SDS011;32646;50.958;6.258;2022-12-15T06:09:44;0.40;;;0.40;;
46897;SDS011;32646;50.958;6.258;2022-12-15T06:12:11;0.40;;;0.40;;
46897;SDS011;32646;50.958;6.258;2022-12-15T06:14:37;0.40;;;0.40;;
46897;SDS011;32646;50.958;6.258;2022-12-15T06:17:04;0.40;;;0.40;;
46897;SDS011;32646;50.958;6.258;2022-12-15T06:19:31;0.40;;;0.40;;
46897;SDS011;32646;50.958;6.258;2022-12-15T06:21:57;0.40;;;0.40;;
46897;SDS011;32646;50.958;6.258;2022-12-15T06:24:24;0.40;;;0.40;;
46897;SDS011;32646;50.958;6.258;2022-12-15T06:26:51;0.30;;;0.30;;
46897;SDS011;32646;50.958;6.258;2022-12-15T06:29:17;0.40;;;0.40;;
46897;SDS011;32646;50.958;6.258;2022-12-15T06:31:44;0.40;;;0.40;;
46897;SDS011;32646;50.958;6.258;2022-12-15T06:34:11;0.47;;;0.47;;
46897;SDS011;32646;50.958;6.258;2022-12-15T06:36:40;0.50;;;0.50;;
46897;SDS011;32646;50.958;6.258;2022-12-15T06:39:09;0.40;;;0.40;;
46897;SDS011;32646;50.958;6.258;2022-12-15T06:41:37;0.40;;;0.40;;
46897;SDS011;32646;50.958;6.258;2022-12-15T06:44:04;0.40;;;0.40;;
46897;SDS011;32646;50.958;6.258;2022-12-15T06:46:32;0.30;;;0.30;;
46897;SDS011;32646;50.958;6.258;2022-12-15T06:48:59;0.33;;;0.33;;
46897;SDS011;32646;50.958;6.258;2022-12-15T06:51:26;0.40;;;0.40;;
46897;SDS011;32646;50.958;6.258;2022-12-15T06:53:52;0.30;;;0.30;;
46897;SDS011;32646;50.958;6.258;2022-12-15T06:56:21;0.30;;;0.30;;
46897;SDS011;32646;50.958;6.258;2022-12-15T06:58:57;0.40;;;0.40;;
46897;SDS011;32646;50.958;6.258;2022-12-15T07:01:24;0.40;;;0.40;;
46897;SDS011;32646;50.958;6.258;2022-12-15T07:03:51;0.30;;;0.30;;
46897;SDS011;32646;50.958;6.258;2022-12-15T07:06:19;0.33;;;0.33;;
46897;SDS011;32646;50.958;6.258;2022-12-15T07:08:50;0.40;;;0.40;;
46897;SDS011;32646;50.958;6.258;2022-12-15T07:11:19;0.30;;;0.30;;
46897;SDS011;32646;50.958;6.258;2022-12-15T07:13:50;0.30;;;0.30;;
46897;SDS011;32646;50.958;6.258;2022-12-15T07:16:18;0.40;;;0.40;;
46897;SDS011;32646;50.958;6.258;2022-12-15T07:18:46;0.30;;;0.30;;
46897;SDS011;32646;50.958;6.258;2022-12-15T07:21:13;0.40;;;0.40;;
46897;SDS011;32646;50.958;6.258;2022-12-15T07:23:39;0.33;;;0.33;;
46897;SDS011;32646;50.958;6.258;2022-12-15T07:26:23;0.30;;;0.30;;
46897;SDS011;32646;50.958;6.258;2022-12-15T07:28:50;0.40;;;0.40;;
46897;SDS011;32646;50.958;6.258;2022-12-15T07:31:17;0.20;;;0.20;;
46897;SDS011;32646;50.958;6.258;2022-12-15T07:33:43;0.40;;;0.40;;
46897;SDS011;32646;50.958;6.258;2022-12-15T07:36:10;0.30;;;0.30;;
46897;SDS011;32646;50.958;6.258;2022-12-15T07:38:37;0.40;;;0.40;;
46897;SDS011;32646;50.958;6.258;2022-12-15T07:41:04;0.40;;;0.40;;
46897;SDS011;32646;50.958;6.258;2022-12-15T07:43:33;0.30;;;0.30;;
46897;SDS011;32646;50.958;6.258;2022-12-15T07:46:01;0.40;;;0.40;;
46897;SDS011;32646;50.958;6.258;2022-12-15T07:48:28;0.30;;;0.30;;
46897;SDS011;32646;50.958;6.258;2022-12-15T07:50:55;0.40;;;0.40;;
46897;SDS011;32646;50.958;6.258;2022-12-15T07:53:31;0.37;;;0.37;;
46897;SDS011;32646;50.958;6.258;2022-12-15T07:55:59;0.30;;;0.30;;
46897;SDS011;32646;50.958;6.258;2022-12-15T07:58:35;0.40;;;0.40;;
46897;SDS011;32646;50.958;6.258;2022-12-15T08:01:04;0.30;;;0.30;;
46897;SDS011;32646;50.958;6.258;2022-12-15T08:03:32;0.40;;;0.40;;
46897;SDS011;32646;50.958;6.258;2022-12-15T08:06:07;0.40;;;0.40;;
46897;SDS011;32646;50.958;6.258;2022-12-15T08:08:36;0.40;;;0.40;;
46897;SDS011;32646;50.958;6.258;2022-12-15T08:11:06;0.40;;;0.40;;
46897;SDS011;32646;50.958;6.258;2022-12-15T08:13:35;0.40;;;0.40;;
46897;SDS011;32646;50.958;6.258;2022-12-15T08:16:22;0.40;;;0.40;;
46897;SDS011;32646;50.958;6.258;2022-12-15T08:18:49;0.30;;;0.30;;
46897;SDS011;32646;50.958;6.258;2022-12-15T08:21:16;0.30;;;0.30;;
46897;SDS011;32646;50.958;6.258;2022-12-15T08:23:42;0.40;;;0.40;;
46897;SDS011;32646;50.958;6.258;2022-12-15T08:26:10;0.40;;;0.40;;
46897;SDS011;32646;50.958;6.258;2022-12-15T08:28:39;0.40;;;0.40;;
46897;SDS011;32646;50.958;6.258;2022-12-15T08:31:13;0.40;;;0.40;;
46897;SDS011;32646;50.958;6.258;2022-12-15T08:33:43;0.30;;;0.30;;
46897;SDS011;32646;50.958;6.258;2022-12-15T08:36:11;0.40;;;0.40;;
46897;SDS011;32646;50.958;6.258;2022-12-15T08:38:39;0.30;;;0.30;;
46897;SDS011;32646;50.958;6.258;2022-12-15T08:46:14;0.40;;;0.40;;
46897;SDS011;32646;50.958;6.258;2022-12-15T08:48:41;0.40;;;0.40;;
46897;SDS011;32646;50.958;6.258;2022-12-15T08:51:08;0.33;;;0.33;;
46897;SDS011;32646;50.958;6.258;2022-12-15T08:53:35;0.33;;;0.33;;
46897;SDS011;32646;50.958;6.258;2022-12-15T08:56:03;0.37;;;0.37;;
46897;SDS011;32646;50.958;6.258;2022-12-15T08:58:36;0.33;;;0.33;;
46897;SDS011;32646;50.958;6.258;2022-12-15T09:01:04;0.30;;;0.30;;
46897;SDS011;32646;50.958;6.258;2022-12-15T09:03:33;0.37;;;0.37;;
46897;SDS011;32646;50.958;6.258;2022-12-15T09:06:01;0.38;;;0.38;;
46897;SDS011;32646;50.958;6.258;2022-12-15T09:08:28;0.30;;;0.30;;
46897;SDS011;32646;50.958;6.258;2022-12-15T09:10:58;0.30;;;0.30;;
46897;SDS011;32646;50.958;6.258;2022-12-15T09:13:25;0.28;;;0.28;;
46897;SDS011;32646;50.958;6.258;2022-12-15T09:15:56;0.22;;;0.22;;
46897;SDS011;32646;50.958;6.258;2022-12-15T09:18:36;0.30;;;0.30;;
46897;SDS011;32646;50.958;6.258;2022-12-15T09:21:03;0.30;;;0.30;;
46897;SDS011;32646;50.958;6.258;2022-12-15T09:23:31;0.30;;;0.30;;
46897;SDS011;32646;50.958;6.258;2022-12-15T09:26:01;0.30;;;0.30;;
46897;SDS011;32646;50.958;6.258;2022-12-15T09:28:33;0.20;;;0.20;;
46897;SDS011;32646;50.958;6.258;2022-12-15T09:31:01;0.20;;;0.20;;
46897;SDS011;32646;50.958;6.258;2022-12-15T09:33:29;0.20;;;0.20;;
46897;SDS011;32646;50.958;6.258;2022-12-15T09:35:57;0.20;;;0.20;;
46897;SDS011;32646;50.958;6.258;2022-12-15T09:38:23;0.20;;;0.20;;
46897;SDS011;32646;50.958;6.258;2022-12-15T09:40:50;0.20;;;0.20;;
46897;SDS011;32646;50.958;6.258;2022-12-15T09:43:24;0.20;;;0.20;;
46897;SDS011;32646;50.958;6.258;2022-12-15T09:46:25;0.20;;;0.20;;
46897;SDS011;32646;50.958;6.258;2022-12-15T09:48:58;0.20;;;0.20;;
46897;SDS011;32646;50.958;6.258;2022-12-15T09:51:35;0.20;;;0.20;;
46897;SDS011;32646;50.958;6.258;2022-12-15T09:54:09;0.20;;;0.20;;
46897;SDS011;32646;50.958;6.258;2022-12-15T09:56:40;0.20;;;0.20;;
46897;SDS011;32646;50.958;6.258;2022-12-15T09:59:19;0.20;;;0.20;;
46897;SDS011;32646;50.958;6.258;2022-12-15T10:01:58;0.20;;;0.20;;
46897;SDS011;32646;50.958;6.258;2022-12-15T10:07:36;0.20;;;0.20;;
46897;SDS011;32646;50.958;6.258;2022-12-15T10:10:14;0.20;;;0.20;;
46897;SDS011;32646;50.958;6.258;2022-12-15T10:12:45;0.20;;;0.20;;
46897;SDS011;32646;50.958;6.258;2022-12-15T10:15:28;0.20;;;0.20;;
46897;SDS011;32646;50.958;6.258;2022-12-15T10:18:21;0.20;;;0.20;;
46897;SDS011;32646;50.958;6.258;2022-12-15T10:20:52;0.20;;;0.20;;
46897;SDS011;32646;50.958;6.258;2022-12-15T10:23:21;0.20;;;0.20;;
46897;SDS011;32646;50.958;6.258;2022-12-15T10:28:40;0.20;;;0.20;;
46897;SDS011;32646;50.958;6.258;2022-12-15T10:31:34;0.20;;;0.20;;
46897;SDS011;32646;50.958;6.258;2022-12-15T10:34:12;0.20;;;0.20;;
46897;SDS011;32646;50.958;6.258;2022-12-15T10:36:56;0.20;;;0.20;;
46897;SDS011;32646;50.958;6.258;2022-12-15T10:39:35;0.15;;;0.15;;
46897;SDS011;32646;50.958;6.258;2022-12-15T10:42:14;0.20;;;0.20;;
46897;SDS011;32646;50.958;6.258;2022-12-15T10:44:47;0.20;;;0.20;;
46897;SDS011;32646;50.958;6.258;2022-12-15T10:47:26;0.20;;;0.20;;
46897;SDS011;32646;50.958;6.258;2022-12-15T10:49:55;0.20;;;0.20;;
46897;SDS011;32646;50.958;6.258;2022-12-15T10:52:49;0.10;;;0.10;;
46897;SDS011;32646;50.958;6.258;2022-12-15T10:55:35;0.20;;;0.20;;
46897;SDS011;32646;50.958;6.258;2022-12-15T10:58:14;0.20;;;0.20;;
46897;SDS011;32646;50.958;6.258;2022-12-15T11:00:43;0.20;;;0.20;;
46897;SDS011;32646;50.958;6.258;2022-12-15T11:03:21;0.10;;;0.10;;
46897;SDS011;32646;50.958;6.258;2022-12-15T11:05:50;0.10;;;0.10;;
46897;SDS011;32646;50.958;6.258;2022-12-15T11:08:17;0.10;;;0.10;;
46897;SDS011;32646;50.958;6.258;2022-12-15T11:13:22;0.20;;;0.20;;
46897;SDS011;32646;50.958;6.258;2022-12-15T11:15:49;0.10;;;0.10;;
46897;SDS011;32646;50.958;6.258;2022-12-15T11:18:31;0.10;;;0.10;;
46897;SDS011;32646;50.958;6.258;2022-12-15T11:23:52;0.10;;;0.10;;
46897;SDS011;32646;50.958;6.258;2022-12-15T11:26:26;0.10;;;0.10;;
46897;SDS011;32646;50.958;6.258;2022-12-15T11:29:16;0.10;;;0.10;;
46897;SDS011;32646;50.958;6.258;2022-12-15T11:31:43;0.10;;;0.10;;
46897;SDS011;32646;50.958;6.258;2022-12-15T11:34:14;0.10;;;0.10;;
46897;SDS011;32646;50.958;6.258;2022-12-15T11:37:27;0.15;;;0.15;;
46897;SDS011;32646;50.958;6.258;2022-12-15T11:42:21;0.10;;;0.10;;
46897;SDS011;32646;50.958;6.258;2022-12-15T11:48:03;0.10;;;0.10;;
46897;SDS011;32646;50.958;6.258;2022-12-15T11:53:44;0.20;;;0.20;;
46897;SDS011;32646;50.958;6.258;2022-12-15T11:56:55;0.10;;;0.10;;
46897;SDS011;32646;50.958;6.258;2022-12-15T11:59:54;0.10;;;0.10;;
46897;SDS011;32646;50.958;6.258;2022-12-15T12:02:45;0.10;;;0.10;;
46897;SDS011;32646;50.958;6.258;2022-12-15T12:10:38;0.10;;;0.10;;
46897;SDS011;32646;50.958;6.258;2022-12-15T12:22:05;0.10;;;0.10;;
46897;SDS011;32646;50.958;6.258;2022-12-15T12:27:33;0.20;;;0.20;;
46897;SDS011;32646;50.958;6.258;2022-12-15T12:30:16;0.10;;;0.10;;
46897;SDS011;32646;50.958;6.258;2022-12-15T12:35:55;0.10;;;0.10;;
46897;SDS011;32646;50.958;6.258;2022-12-15T12:38:28;0.10;;;0.10;;
46897;SDS011;32646;50.958;6.258;2022-12-15T12:41:09;0.10;;;0.10;;
46897;SDS011;32646;50.958;6.258;2022-12-15T12:43:42;0.10;;;0.10;;
46897;SDS011;32646;50.958;6.258;2022-12-15T12:46:17;0.10;;;0.10;;
46897;SDS011;32646;50.958;6.258;2022-12-15T12:48:52;0.10;;;0.10;;
46897;SDS011;32646;50.958;6.258;2022-12-15T12:51:27;0.10;;;0.10;;
46897;SDS011;32646;50.958;6.258;2022-12-15T12:53:57;0.10;;;0.10;;
46897;SDS011;32646;50.958;6.258;2022-12-15T12:59:30;0.10;;;0.10;;
46897;SDS011;32646;50.958;6.258;2022-12-15T13:01:54;0.10;;;0.10;;
46897;SDS011;32646;50.958;6.258;2022-12-15T13:07:03;0.10;;;0.10;;
46897;SDS011;32646;50.958;6.258;2022-12-15T13:15:28;0.10;;;0.10;;
46897;SDS011;32646;50.958;6.258;2022-12-15T13:18:16;0.10;;;0.10;;
46897;SDS011;32646;50.958;6.258;2022-12-15T13:20:46;0.10;;;0.10;;
46897;SDS011;32646;50.958;6.258;2022-12-15T13:42:23;0.10;;;0.10;;
46897;SDS011;32646;50.958;6.258;2022-12-15T13:44:47;0.10;;;0.10;;
46897;SDS011;32646;50.958;6.258;2022-12-15T13:52:27;0.10;;;0.10;;
46897;SDS011;32646;50.958;6.258;2022-12-15T13:55:24;0.10;;;0.10;;
46897;SDS011;32646;50.958;6.258;2022-12-15T13:57:54;0.10;;;0.10;;
46897;SDS011;32646;50.958;6.258;2022-12-15T14:00:25;0.10;;;0.10;;
46897;SDS011;32646;50.958;6.258;2022-12-15T14:03:02;0.10;;;0.10;;
46897;SDS011;32646;50.958;6.258;2022-12-15T14:05:29;0.10;;;0.10;;
46897;SDS011;32646;50.958;6.258;2022-12-15T14:07:57;0.10;;;0.10;;
46897;SDS011;32646;50.958;6.258;2022-12-15T14:13:00;0.10;;;0.10;;
46897;SDS011;32646;50.958;6.258;2022-12-15T14:15:43;0.10;;;0.10;;
46897;SDS011;32646;50.958;6.258;2022-12-15T14:18:23;0.10;;;0.10;;
46897;SDS011;32646;50.958;6.258;2022-12-15T14:20:52;0.10;;;0.10;;
46897;SDS011;32646;50.958;6.258;2022-12-15T14:23:24;0.10;;;0.10;;
46897;SDS011;32646;50.958;6.258;2022-12-15T14:26:01;0.10;;;0.10;;
46897;SDS011;32646;50.958;6.258;2022-12-15T14:28:31;0.10;;;0.10;;
46897;SDS011;32646;50.958;6.258;2022-12-15T14:31:01;0.10;;;0.10;;
46897;SDS011;32646;50.958;6.258;2022-12-15T14:33:37;0.10;;;0.10;;
46897;SDS011;32646;50.958;6.258;2022-12-15T14:36:07;0.20;;;0.20;;
46897;SDS011;32646;50.958;6.258;2022-12-15T14:38:43;0.20;;;0.20;;
46897;SDS011;32646;50.958;6.258;2022-12-15T14:41:37;0.20;;;0.20;;
46897;SDS011;32646;50.958;6.258;2022-12-15T14:44:05;0.20;;;0.20;;
46897;SDS011;32646;50.958;6.258;2022-12-15T14:47:18;0.20;;;0.20;;
46897;SDS011;32646;50.958;6.258;2022-12-15T14:49:50;0.20;;;0.20;;
46897;SDS011;32646;50.958;6.258;2022-12-15T14:52:36;0.20;;;0.20;;
46897;SDS011;32646;50.958;6.258;2022-12-15T14:57:46;0.20;;;0.20;;
46897;SDS011;32646;50.958;6.258;2022-12-15T15:00:26;0.20;;;0.20;;
46897;SDS011;32646;50.958;6.258;2022-12-15T15:06:03;0.20;;;0.20;;
46897;SDS011;32646;50.958;6.258;2022-12-15T15:08:45;0.20;;;0.20;;
46897;SDS011;32646;50.958;6.258;2022-12-15T15:14:02;0.30;;;0.30;;
46897;SDS011;32646;50.958;6.258;2022-12-15T15:16:33;0.20;;;0.20;;
46897;SDS011;32646;50.958;6.258;2022-12-15T15:19:00;0.30;;;0.30;;
46897;SDS011;32646;50.958;6.258;2022-12-15T15:21:28;0.25;;;0.25;;
46897;SDS011;32646;50.958;6.258;2022-12-15T15:24:00;0.30;;;0.30;;
46897;SDS011;32646;50.958;6.258;2022-12-15T15:26:50;0.30;;;0.30;;
46897;SDS011;32646;50.958;6.258;2022-12-15T15:29:36;0.20;;;0.20;;
46897;SDS011;32646;50.958;6.258;2022-12-15T15:32:05;0.30;;;0.30;;
46897;SDS011;32646;50.958;6.258;2022-12-15T15:34:40;0.20;;;0.20;;
46897;SDS011;32646;50.958;6.258;2022-12-15T15:37:12;0.30;;;0.30;;
46897;SDS011;32646;50.958;6.258;2022-12-15T15:39:43;0.30;;;0.30;;
46897;SDS011;32646;50.958;6.258;2022-12-15T15:42:10;0.25;;;0.25;;
46897;SDS011;32646;50.958;6.258;2022-12-15T15:44:37;0.25;;;0.25;;
46897;SDS011;32646;50.958;6.258;2022-12-15T15:47:04;0.20;;;0.20;;
46897;SDS011;32646;50.958;6.258;2022-12-15T15:49:32;0.22;;;0.22;;
46897;SDS011;32646;50.958;6.258;2022-12-15T15:52:04;0.20;;;0.20;;
46897;SDS011;32646;50.958;6.258;2022-12-15T15:54:32;0.30;;;0.30;;
46897;SDS011;32646;50.958;6.258;2022-12-15T15:56:59;0.30;;;0.30;;
46897;SDS011;32646;50.958;6.258;2022-12-15T15:59:26;0.30;;;0.30;;
46897;SDS011;32646;50.958;6.258;2022-12-15T16:01:52;0.30;;;0.30;;
46897;SDS011;32646;50.958;6.258;2022-12-15T16:04:21;0.30;;;0.30;;
46897;SDS011;32646;50.958;6.258;2022-12-15T16:06:48;0.30;;;0.30;;
46897;SDS011;32646;50.958;6.258;2022-12-15T16:09:15;0.30;;;0.30;;
46897;SDS011;32646;50.958;6.258;2022-12-15T16:11:42;0.30;;;0.30;;
46897;SDS011;32646;50.958;6.258;2022-12-15T16:14:13;0.20;;;0.20;;
46897;SDS011;32646;50.958;6.258;2022-12-15T16:16:41;0.20;;;0.20;;
46897;SDS011;32646;50.958;6.258;2022-12-15T16:19:08;0.30;;;0.30;;
46897;SDS011;32646;50.958;6.258;2022-12-15T16:21:34;0.30;;;0.30;;
46897;SDS011;32646;50.958;6.258;2022-12-15T16:24:06;0.20;;;0.20;;
46897;SDS011;32646;50.958;6.258;2022-12-15T16:26:35;0.30;;;0.30;;
46897;SDS011;32646;50.958;6.258;2022-12-15T16:29:02;0.30;;;0.30;;
46897;SDS011;32646;50.958;6.258;2022-12-15T16:31:32;0.30;;;0.30;;
46897;SDS011;32646;50.958;6.258;2022-12-15T16:34:06;0.30;;;0.30;;
46897;SDS011;32646;50.958;6.258;2022-12-15T16:36:33;0.30;;;0.30;;
46897;SDS011;32646;50.958;6.258;2022-12-15T16:39:00;0.30;;;0.30;;
46897;SDS011;32646;50.958;6.258;2022-12-15T16:41:26;0.30;;;0.30;;
46897;SDS011;32646;50.958;6.258;2022-12-15T16:43:53;0.30;;;0.30;;
46897;SDS011;32646;50.958;6.258;2022-12-15T16:46:20;0.30;;;0.30;;
46897;SDS011;32646;50.958;6.258;2022-12-15T16:48:46;0.30;;;0.30;;
46897;SDS011;32646;50.958;6.258;2022-12-15T16:51:32;0.30;;;0.30;;
46897;SDS011;32646;50.958;6.258;2022-12-15T16:54:05;0.30;;;0.30;;
46897;SDS011;32646;50.958;6.258;2022-12-15T16:56:32;0.30;;;0.30;;
46897;SDS011;32646;50.958;6.258;2022-12-15T16:58:59;0.30;;;0.30;;
46897;SDS011;32646;50.958;6.258;2022-12-15T17:01:45;0.30;;;0.30;;
46897;SDS011;32646;50.958;6.258;2022-12-15T17:04:12;0.30;;;0.30;;
46897;SDS011;32646;50.958;6.258;2022-12-15T17:06:39;0.30;;;0.30;;
46897;SDS011;32646;50.958;6.258;2022-12-15T17:09:06;0.30;;;0.30;;
46897;SDS011;32646;50.958;6.258;2022-12-15T17:11:37;0.30;;;0.30;;